sensor_id;sensor_type;location;lat;lon;timestamp;pressure;altitude;pressure_sealevel;temperature;humidity
78149;BME280;67396;42.664;23.382;2023-03-19T00:00:11;95477.03;;;3.81;52.48
78149;BME280;67396;42.664;23.382;2023-03-19T00:02:37;95475.44;;;3.80;52.48
78149;BME280;67396;42.664;23.382;2023-03-19T00:05:03;95475.88;;;3.91;52.26
78149;BME280;67396;42.664;23.382;2023-03-19T00:07:29;95470.97;;;3.84;52.43
78149;BME280;67396;42.664;23.382;2023-03-19T00:09:55;95465.94;;;3.95;52.00
78149;BME280;67396;42.664;23.382;2023-03-19T00:12:20;95467.78;;;3.82;52.50
78149;BME280;67396;42.664;23.382;2023-03-19T00:14:46;95464.69;;;3.92;52.23
78149;BME280;67396;42.664;23.382;2023-03-19T00:17:11;95463.47;;;3.60;53.38
78149;BME280;67396;42.664;23.382;2023-03-19T00:19:40;95463.66;;;3.47;54.24
78149;BME280;67396;42.664;23.382;2023-03-19T00:22:06;95464.72;;;3.33;54.20
78149;BME280;67396;42.664;23.382;2023-03-19T00:24:31;95463.75;;;3.29;55.09
78149;BME280;67396;42.664;23.382;2023-03-19T00:26:57;95460.47;;;3.15;55.83
78149;BME280;67396;42.664;23.382;2023-03-19T00:29:22;95464.66;;;3.04;56.23
78149;BME280;67396;42.664;23.382;2023-03-19T00:31:48;95456.38;;;2.92;56.42
78149;BME280;67396;42.664;23.382;2023-03-19T00:34:14;95456.22;;;2.97;56.07
78149;BME280;67396;42.664;23.382;2023-03-19T00:36:42;95453.00;;;3.03;55.75
78149;BME280;67396;42.664;23.382;2023-03-19T00:39:07;95447.88;;;3.11;55.46
78149;BME280;67396;42.664;23.382;2023-03-19T00:41:33;95446.00;;;3.02;55.31
78149;BME280;67396;42.664;23.382;2023-03-19T00:43:58;95443.59;;;3.01;55.21
78149;BME280;67396;42.664;23.382;2023-03-19T00:46:24;95442.16;;;3.03;55.22
78149;BME280;67396;42.664;23.382;2023-03-19T00:48:50;95441.44;;;3.24;54.43
78149;BME280;67396;42.664;23.382;2023-03-19T00:51:19;95438.81;;;3.36;54.16
78149;BME280;67396;42.664;23.382;2023-03-19T00:53:45;95442.56;;;3.52;53.75
78149;BME280;67396;42.664;23.382;2023-03-19T00:56:13;95438.69;;;3.32;54.53
78149;BME280;67396;42.664;23.382;2023-03-19T00:58:39;95426.19;;;3.40;53.89
78149;BME280;67396;42.664;23.382;2023-03-19T01:01:09;95434.63;;;3.47;53.95
78149;BME280;67396;42.664;23.382;2023-03-19T01:03:35;95435.50;;;3.60;53.27
78149;BME280;67396;42.664;23.382;2023-03-19T01:06:01;95431.44;;;3.45;54.22
78149;BME280;67396;42.664;23.382;2023-03-19T01:08:27;95435.50;;;3.30;54.19
78149;BME280;67396;42.664;23.382;2023-03-19T01:10:52;95426.88;;;3.28;54.34
78149;BME280;67396;42.664;23.382;2023-03-19T01:13:18;95426.56;;;3.30;54.45
78149;BME280;67396;42.664;23.382;2023-03-19T01:15:44;95427.69;;;3.29;54.50
78149;BME280;67396;42.664;23.382;2023-03-19T01:18:13;95423.50;;;3.40;53.85
78149;BME280;67396;42.664;23.382;2023-03-19T01:20:39;95427.69;;;3.29;54.25
78149;BME280;67396;42.664;23.382;2023-03-19T01:23:06;95429.16;;;3.18;54.45
78149;BME280;67396;42.664;23.382;2023-03-19T01:25:33;95425.50;;;3.22;53.81
78149;BME280;67396;42.664;23.382;2023-03-19T01:27:59;95423.91;;;3.21;54.12
78149;BME280;67396;42.664;23.382;2023-03-19T01:30:27;95424.53;;;3.18;53.92
78149;BME280;67396;42.664;23.382;2023-03-19T01:32:53;95421.53;;;3.11;54.00
78149;BME280;67396;42.664;23.382;2023-03-19T01:35:18;95426.13;;;3.19;53.72
78149;BME280;67396;42.664;23.382;2023-03-19T01:37:45;95427.09;;;3.23;53.70
78149;BME280;67396;42.664;23.382;2023-03-19T01:40:12;95421.09;;;3.00;53.69
78149;BME280;67396;42.664;23.382;2023-03-19T01:42:54;95415.28;;;2.90;54.43
78149;BME280;67396;42.664;23.382;2023-03-19T01:45:48;95414.31;;;2.86;54.48
78149;BME280;67396;42.664;23.382;2023-03-19T01:48:25;95413.06;;;2.75;54.86
78149;BME280;67396;42.664;23.382;2023-03-19T01:50:52;95419.94;;;2.72;54.24
78149;BME280;67396;42.664;23.382;2023-03-19T01:53:22;95418.50;;;2.66;53.62
78149;BME280;67396;42.664;23.382;2023-03-19T01:55:49;95425.97;;;2.78;52.92
78149;BME280;67396;42.664;23.382;2023-03-19T01:58:16;95420.88;;;2.76;52.96
78149;BME280;67396;42.664;23.382;2023-03-19T02:00:41;95418.00;;;2.81;52.68
78149;BME280;67396;42.664;23.382;2023-03-19T02:03:07;95413.72;;;2.72;53.74
78149;BME280;67396;42.664;23.382;2023-03-19T02:05:33;95425.56;;;2.58;54.94
78149;BME280;67396;42.664;23.382;2023-03-19T02:08:02;95425.28;;;2.34;55.61
78149;BME280;67396;42.664;23.382;2023-03-19T02:10:30;95430.84;;;2.38;55.79
78149;BME280;67396;42.664;23.382;2023-03-19T02:12:56;95428.81;;;2.26;56.54
78149;BME280;67396;42.664;23.382;2023-03-19T02:15:21;95426.25;;;2.21;56.68
78149;BME280;67396;42.664;23.382;2023-03-19T02:17:47;95422.44;;;2.05;57.49
78149;BME280;67396;42.664;23.382;2023-03-19T02:23:08;95420.84;;;1.95;58.37
78149;BME280;67396;42.664;23.382;2023-03-19T02:28:17;95433.44;;;2.00;58.27
78149;BME280;67396;42.664;23.382;2023-03-19T02:30:43;95438.22;;;2.29;57.15
78149;BME280;67396;42.664;23.382;2023-03-19T02:33:14;95426.25;;;2.21;57.74
78149;BME280;67396;42.664;23.382;2023-03-19T02:35:43;95431.00;;;2.41;56.83
78149;BME280;67396;42.664;23.382;2023-03-19T02:38:11;95431.59;;;2.55;54.91
78149;BME280;67396;42.664;23.382;2023-03-19T02:40:44;95431.59;;;2.55;53.69
78149;BME280;67396;42.664;23.382;2023-03-19T02:43:12;95424.63;;;1.60;55.91
78149;BME280;67396;42.664;23.382;2023-03-19T02:45:40;95422.06;;;0.89;58.32
78149;BME280;67396;42.664;23.382;2023-03-19T02:48:06;95418.28;;;0.59;59.86
78149;BME280;67396;42.664;23.382;2023-03-19T02:50:31;95418.41;;;0.54;59.99
78149;BME280;67396;42.664;23.382;2023-03-19T02:53:00;95424.94;;;0.62;60.04
78149;BME280;67396;42.664;23.382;2023-03-19T02:55:30;95420.75;;;0.78;59.64
78149;BME280;67396;42.664;23.382;2023-03-19T02:58:01;95430.66;;;0.91;59.32
78149;BME280;67396;42.664;23.382;2023-03-19T03:00:26;95423.13;;;1.19;58.97
78149;BME280;67396;42.664;23.382;2023-03-19T03:02:53;95426.13;;;1.18;59.41
78149;BME280;67396;42.664;23.382;2023-03-19T03:05:20;95424.16;;;1.40;58.65
78149;BME280;67396;42.664;23.382;2023-03-19T03:07:46;95423.69;;;1.47;58.55
78149;BME280;67396;42.664;23.382;2023-03-19T03:10:12;95434.53;;;1.64;57.90
78149;BME280;67396;42.664;23.382;2023-03-19T03:12:37;95426.72;;;1.63;57.78
78149;BME280;67396;42.664;23.382;2023-03-19T03:15:04;95429.41;;;1.54;58.39
78149;BME280;67396;42.664;23.382;2023-03-19T03:17:30;95443.41;;;1.56;58.13
78149;BME280;67396;42.664;23.382;2023-03-19T03:19:56;95437.03;;;1.52;58.47
78149;BME280;67396;42.664;23.382;2023-03-19T03:22:21;95443.75;;;1.63;58.77
78149;BME280;67396;42.664;23.382;2023-03-19T03:24:47;95458.63;;;1.35;59.78
78149;BME280;67396;42.664;23.382;2023-03-19T03:27:12;95457.56;;;0.96;60.90
78149;BME280;67396;42.664;23.382;2023-03-19T03:29:38;95450.09;;;0.71;61.83
78149;BME280;67396;42.664;23.382;2023-03-19T03:32:04;95452.34;;;0.47;62.70
78149;BME280;67396;42.664;23.382;2023-03-19T03:34:31;95458.44;;;0.52;62.89
78149;BME280;67396;42.664;23.382;2023-03-19T03:36:56;95455.78;;;0.61;62.23
78149;BME280;67396;42.664;23.382;2023-03-19T03:39:22;95456.09;;;0.90;61.71
78149;BME280;67396;42.664;23.382;2023-03-19T03:41:47;95460.91;;;1.02;60.97
78149;BME280;67396;42.664;23.382;2023-03-19T03:44:13;95462.31;;;0.99;61.13
78149;BME280;67396;42.664;23.382;2023-03-19T03:46:39;95458.91;;;1.25;60.19
78149;BME280;67396;42.664;23.382;2023-03-19T03:49:05;95463.41;;;1.29;60.45
78149;BME280;67396;42.664;23.382;2023-03-19T03:51:30;95470.88;;;1.32;60.47
78149;BME280;67396;42.664;23.382;2023-03-19T03:53:57;95458.47;;;1.23;60.41
78149;BME280;67396;42.664;23.382;2023-03-19T03:56:22;95458.72;;;1.12;61.24
78149;BME280;67396;42.664;23.382;2023-03-19T03:58:47;95464.25;;;1.07;61.51
78149;BME280;67396;42.664;23.382;2023-03-19T04:01:17;95476.06;;;1.11;61.16
78149;BME280;67396;42.664;23.382;2023-03-19T04:03:43;95470.22;;;0.87;62.46
78149;BME280;67396;42.664;23.382;2023-03-19T04:06:14;95469.25;;;0.83;62.95
78149;BME280;67396;42.664;23.382;2023-03-19T04:08:41;95464.16;;;1.12;61.47
78149;BME280;67396;42.664;23.382;2023-03-19T04:11:07;95458.16;;;0.93;62.47
78149;BME280;67396;42.664;23.382;2023-03-19T04:13:32;95462.31;;;0.99;62.40
78149;BME280;67396;42.664;23.382;2023-03-19T04:16:02;95454.28;;;1.17;61.38
78149;BME280;67396;42.664;23.382;2023-03-19T04:18:28;95457.16;;;1.20;61.52
78149;BME280;67396;42.664;23.382;2023-03-19T04:20:54;95454.59;;;1.15;61.78
78149;BME280;67396;42.664;23.382;2023-03-19T04:23:19;95454.63;;;1.24;61.22
78149;BME280;67396;42.664;23.382;2023-03-19T04:25:45;95458.97;;;1.42;60.32
78149;BME280;67396;42.664;23.382;2023-03-19T04:28:10;95457.09;;;1.51;59.65
78149;BME280;67396;42.664;23.382;2023-03-19T04:30:36;95455.81;;;1.40;59.20
78149;BME280;67396;42.664;23.382;2023-03-19T04:33:02;95459.94;;;1.46;59.14
78149;BME280;67396;42.664;23.382;2023-03-19T04:35:27;95473.66;;;1.58;58.80
78149;BME280;67396;42.664;23.382;2023-03-19T04:37:53;95466.50;;;1.62;58.56
78149;BME280;67396;42.664;23.382;2023-03-19T04:40:18;95464.59;;;1.63;58.33
78149;BME280;67396;42.664;23.382;2023-03-19T04:42:44;95464.09;;;1.52;58.04
78149;BME280;67396;42.664;23.382;2023-03-19T04:45:10;95474.81;;;1.18;59.18
78149;BME280;67396;42.664;23.382;2023-03-19T04:47:35;95469.88;;;1.20;59.05
78149;BME280;67396;42.664;23.382;2023-03-19T04:50:01;95469.13;;;1.28;59.14
78149;BME280;67396;42.664;23.382;2023-03-19T04:52:35;95470.00;;;1.14;59.87
78149;BME280;67396;42.664;23.382;2023-03-19T04:55:06;95460.44;;;1.08;60.18
78149;BME280;67396;42.664;23.382;2023-03-19T04:57:33;95468.66;;;1.34;59.07
78149;BME280;67396;42.664;23.382;2023-03-19T05:00:00;95468.50;;;1.31;59.35
78149;BME280;67396;42.664;23.382;2023-03-19T05:02:25;95476.16;;;1.46;59.29
78149;BME280;67396;42.664;23.382;2023-03-19T05:04:51;95471.59;;;1.16;59.02
78149;BME280;67396;42.664;23.382;2023-03-19T05:07:17;95475.88;;;1.08;59.47
78149;BME280;67396;42.664;23.382;2023-03-19T05:09:43;95469.09;;;0.88;60.42
78149;BME280;67396;42.664;23.382;2023-03-19T05:12:11;95469.75;;;1.33;59.50
78149;BME280;67396;42.664;23.382;2023-03-19T05:14:36;95476.84;;;1.60;58.37
78149;BME280;67396;42.664;23.382;2023-03-19T05:17:01;95474.78;;;1.66;58.39
78149;BME280;67396;42.664;23.382;2023-03-19T05:19:30;95471.97;;;2.14;56.68
78149;BME280;67396;42.664;23.382;2023-03-19T05:21:55;95481.53;;;2.54;55.96
78149;BME280;67396;42.664;23.382;2023-03-19T05:24:22;95483.41;;;3.18;63.38
78149;BME280;67396;42.664;23.382;2023-03-19T05:26:48;95476.03;;;3.94;72.93
78149;BME280;67396;42.664;23.382;2023-03-19T05:29:14;95470.59;;;4.36;53.55
78149;BME280;67396;42.664;23.382;2023-03-19T05:31:40;95471.72;;;4.35;51.50
78149;BME280;67396;42.664;23.382;2023-03-19T05:34:06;95476.22;;;4.10;51.99
78149;BME280;67396;42.664;23.382;2023-03-19T05:36:32;95471.25;;;4.33;51.42
78149;BME280;67396;42.664;23.382;2023-03-19T05:38:57;95475.38;;;4.39;50.66
78149;BME280;67396;42.664;23.382;2023-03-19T05:41:25;95473.78;;;4.38;50.33
78149;BME280;67396;42.664;23.382;2023-03-19T05:43:51;95476.56;;;4.29;50.63
78149;BME280;67396;42.664;23.382;2023-03-19T05:46:16;95476.53;;;4.50;50.10
78149;BME280;67396;42.664;23.382;2023-03-19T05:48:42;95474.28;;;4.31;50.76
78149;BME280;67396;42.664;23.382;2023-03-19T05:51:11;95473.88;;;4.41;50.05
78149;BME280;67396;42.664;23.382;2023-03-19T05:53:40;95480.28;;;4.58;49.84
78149;BME280;67396;42.664;23.382;2023-03-19T05:56:08;95484.97;;;4.57;49.87
78149;BME280;67396;42.664;23.382;2023-03-19T05:58:34;95480.69;;;4.68;50.32
78149;BME280;67396;42.664;23.382;2023-03-19T06:01:00;95478.53;;;4.41;51.77
78149;BME280;67396;42.664;23.382;2023-03-19T06:03:27;95480.41;;;4.82;49.57
78149;BME280;67396;42.664;23.382;2023-03-19T06:05:52;95477.28;;;4.92;49.80
78149;BME280;67396;42.664;23.382;2023-03-19T06:08:18;95486.72;;;5.07;48.65
78149;BME280;67396;42.664;23.382;2023-03-19T06:10:44;95483.66;;;5.20;47.06
78149;BME280;67396;42.664;23.382;2023-03-19T06:13:10;95474.38;;;5.21;48.09
78149;BME280;67396;42.664;23.382;2023-03-19T06:15:36;95477.69;;;5.63;46.96
78149;BME280;67396;42.664;23.382;2023-03-19T06:18:02;95473.16;;;6.04;45.95
78149;BME280;67396;42.664;23.382;2023-03-19T06:20:30;95473.66;;;6.34;44.73
78149;BME280;67396;42.664;23.382;2023-03-19T06:22:56;95477.34;;;6.14;44.91
78149;BME280;67396;42.664;23.382;2023-03-19T06:25:22;95478.16;;;6.42;44.49
78149;BME280;67396;42.664;23.382;2023-03-19T06:27:47;95476.41;;;6.62;44.38
78149;BME280;67396;42.664;23.382;2023-03-19T07:29:47;95499.88;;;9.05;41.12
78149;BME280;67396;42.664;23.382;2023-03-19T07:32:13;95506.63;;;9.31;39.70
78149;BME280;67396;42.664;23.382;2023-03-19T07:37:11;95495.78;;;9.61;37.18
78149;BME280;67396;42.664;23.382;2023-03-19T07:39:41;95503.88;;;9.76;38.29
78149;BME280;67396;42.664;23.382;2023-03-19T07:42:06;95494.63;;;10.34;37.89
78149;BME280;67396;42.664;23.382;2023-03-19T07:44:32;95494.56;;;10.86;35.99
78149;BME280;67396;42.664;23.382;2023-03-19T07:46:58;95484.63;;;11.08;35.35
78149;BME280;67396;42.664;23.382;2023-03-19T07:49:23;95499.59;;;10.25;36.78
78149;BME280;67396;42.664;23.382;2023-03-19T07:51:49;95493.44;;;9.86;37.91
78149;BME280;67396;42.664;23.382;2023-03-19T07:54:15;95501.88;;;9.51;37.35
78149;BME280;67396;42.664;23.382;2023-03-19T07:56:41;95498.66;;;9.91;36.94
78149;BME280;67396;42.664;23.382;2023-03-19T07:59:06;95492.28;;;10.62;37.05
78149;BME280;67396;42.664;23.382;2023-03-19T08:01:32;95495.41;;;10.90;36.85
78149;BME280;67396;42.664;23.382;2023-03-19T08:03:57;95494.56;;;11.57;35.04
78149;BME280;67396;42.664;23.382;2023-03-19T08:06:23;95501.16;;;11.12;35.65
78149;BME280;67396;42.664;23.382;2023-03-19T08:08:57;95498.75;;;11.07;35.34
78149;BME280;67396;42.664;23.382;2023-03-19T08:11:23;95509.03;;;11.13;35.22
78149;BME280;67396;42.664;23.382;2023-03-19T08:13:48;95503.66;;;10.61;35.98
78149;BME280;67396;42.664;23.382;2023-03-19T08:16:14;95494.69;;;10.64;36.52
78149;BME280;67396;42.664;23.382;2023-03-19T08:18:39;95494.06;;;10.77;36.41
78149;BME280;67396;42.664;23.382;2023-03-19T08:21:04;95493.34;;;10.84;35.51
78149;BME280;67396;42.664;23.382;2023-03-19T08:23:33;95500.34;;;11.08;35.38
78149;BME280;67396;42.664;23.382;2023-03-19T08:25:59;95494.81;;;11.41;36.89
78149;BME280;67396;42.664;23.382;2023-03-19T08:28:25;95500.88;;;11.98;34.01
78149;BME280;67396;42.664;23.382;2023-03-19T08:30:50;95498.09;;;11.98;32.96
78149;BME280;67396;42.664;23.382;2023-03-19T08:33:16;95494.34;;;10.99;34.96
78149;BME280;67396;42.664;23.382;2023-03-19T08:35:46;95496.41;;;11.42;34.70
78149;BME280;67396;42.664;23.382;2023-03-19T08:38:16;95486.06;;;10.39;35.23
78149;BME280;67396;42.664;23.382;2023-03-19T08:41:10;95487.25;;;10.68;35.47
78149;BME280;67396;42.664;23.382;2023-03-19T08:43:39;95476.25;;;10.64;35.35
78149;BME280;67396;42.664;23.382;2023-03-19T08:46:05;95482.72;;;10.82;35.99
78149;BME280;67396;42.664;23.382;2023-03-19T08:48:30;95476.84;;;11.14;34.51
78149;BME280;67396;42.664;23.382;2023-03-19T08:51:01;95476.78;;;11.07;33.49
78149;BME280;67396;42.664;23.382;2023-03-19T08:53:35;95480.50;;;10.32;34.74
78149;BME280;67396;42.664;23.382;2023-03-19T08:56:05;95470.44;;;9.44;35.80
78149;BME280;67396;42.664;23.382;2023-03-19T08:58:32;95469.31;;;8.65;37.75
78149;BME280;67396;42.664;23.382;2023-03-19T09:01:05;95467.75;;;8.29;39.04
78149;BME280;67396;42.664;23.382;2023-03-19T09:03:33;95465.19;;;8.36;38.40
78149;BME280;67396;42.664;23.382;2023-03-19T09:06:03;95461.75;;;8.58;37.82
78149;BME280;67396;42.664;23.382;2023-03-19T09:08:30;95451.19;;;8.76;37.55
78149;BME280;67396;42.664;23.382;2023-03-19T09:10:56;95447.88;;;8.67;36.76
78149;BME280;67396;42.664;23.382;2023-03-19T09:13:22;95458.47;;;8.88;35.20
78149;BME280;67396;42.664;23.382;2023-03-19T09:15:48;95443.75;;;8.77;36.29
78149;BME280;67396;42.664;23.382;2023-03-19T09:18:13;95443.03;;;8.80;35.57
78149;BME280;67396;42.664;23.382;2023-03-19T09:20:40;95437.31;;;8.88;35.90
78149;BME280;67396;42.664;23.382;2023-03-19T09:23:06;95441.84;;;9.00;35.06
78149;BME280;67396;42.664;23.382;2023-03-19T09:25:31;95440.69;;;9.01;35.13
78149;BME280;67396;42.664;23.382;2023-03-19T09:27:57;95448.25;;;9.07;35.70
78149;BME280;67396;42.664;23.382;2023-03-19T09:30:22;95442.97;;;8.76;36.67
78149;BME280;67396;42.664;23.382;2023-03-19T09:32:48;95446.84;;;8.94;37.03
78149;BME280;67396;42.664;23.382;2023-03-19T09:35:13;95441.03;;;8.77;35.96
78149;BME280;67396;42.664;23.382;2023-03-19T09:37:40;95435.56;;;8.77;36.37
78149;BME280;67396;42.664;23.382;2023-03-19T09:40:06;95442.09;;;8.91;37.04
78149;BME280;67396;42.664;23.382;2023-03-19T09:42:54;95436.94;;;9.09;36.58
78149;BME280;67396;42.664;23.382;2023-03-19T09:45:26;95442.41;;;9.09;35.96
78149;BME280;67396;42.664;23.382;2023-03-19T09:47:56;95440.34;;;9.02;35.82
78149;BME280;67396;42.664;23.382;2023-03-19T09:50:25;95440.81;;;9.08;36.38
78149;BME280;67396;42.664;23.382;2023-03-19T09:53:14;95430.91;;;9.00;36.40
78149;BME280;67396;42.664;23.382;2023-03-19T09:55:50;95428.06;;;8.74;36.63
78149;BME280;67396;42.664;23.382;2023-03-19T09:58:29;95432.47;;;8.78;37.21
78149;BME280;67396;42.664;23.382;2023-03-19T10:00:56;95426.53;;;8.76;37.30
78149;BME280;67396;42.664;23.382;2023-03-19T10:03:29;95417.41;;;8.88;37.05
78149;BME280;67396;42.664;23.382;2023-03-19T10:28:44;95387.28;;;9.56;35.62
78149;BME280;67396;42.664;23.382;2023-03-19T10:34:49;95373.75;;;9.67;35.09
78149;BME280;67396;42.664;23.382;2023-03-19T10:37:22;95366.13;;;9.57;35.19
78149;BME280;67396;42.664;23.382;2023-03-19T10:39:58;95370.19;;;9.66;35.11
78149;BME280;67396;42.664;23.382;2023-03-19T10:45:29;95356.22;;;10.01;33.80
78149;BME280;67396;42.664;23.382;2023-03-19T10:53:39;95335.34;;;10.23;33.52
78149;BME280;67396;42.664;23.382;2023-03-19T11:49:14;95252.31;;;11.11;33.71
78149;BME280;67396;42.664;23.382;2023-03-19T12:24:49;95206.31;;;11.62;32.88
78149;BME280;67396;42.664;23.382;2023-03-19T12:47:27;95190.78;;;11.95;32.61
78149;BME280;67396;42.664;23.382;2023-03-19T12:52:40;95186.09;;;12.02;33.05
78149;BME280;67396;42.664;23.382;2023-03-19T12:55:23;95178.59;;;12.06;32.87
78149;BME280;67396;42.664;23.382;2023-03-19T12:57:57;95180.63;;;12.13;33.17
78149;BME280;67396;42.664;23.382;2023-03-19T13:03:16;95179.81;;;12.23;33.17
78149;BME280;67396;42.664;23.382;2023-03-19T13:06:00;95175.91;;;12.28;33.30
78149;BME280;67396;42.664;23.382;2023-03-19T13:08:47;95169.22;;;12.32;32.60
78149;BME280;67396;42.664;23.382;2023-03-19T13:11:24;95163.34;;;12.37;32.73
78149;BME280;67396;42.664;23.382;2023-03-19T13:14:12;95155.09;;;12.44;32.59
78149;BME280;67396;42.664;23.382;2023-03-19T13:16:47;95158.25;;;12.50;32.14
78149;BME280;67396;42.664;23.382;2023-03-19T13:22:10;95161.41;;;12.45;32.90
78149;BME280;67396;42.664;23.382;2023-03-19T13:24:38;95150.78;;;12.54;32.75
78149;BME280;67396;42.664;23.382;2023-03-19T13:27:12;95151.56;;;12.51;33.18
78149;BME280;67396;42.664;23.382;2023-03-19T13:29:54;95151.19;;;12.56;32.83
78149;BME280;67396;42.664;23.382;2023-03-19T13:32:51;95146.47;;;12.57;32.60
78149;BME280;67396;42.664;23.382;2023-03-19T13:35:37;95144.50;;;12.64;32.47
78149;BME280;67396;42.664;23.382;2023-03-19T13:38:21;95140.94;;;12.71;32.10
78149;BME280;67396;42.664;23.382;2023-03-19T13:40:54;95140.97;;;12.74;32.14
78149;BME280;67396;42.664;23.382;2023-03-19T14:01:41;95121.66;;;12.99;32.25
78149;BME280;67396;42.664;23.382;2023-03-19T15:00:27;95104.13;;;13.70;30.12
78149;BME280;67396;42.664;23.382;2023-03-19T15:02:54;95101.78;;;13.65;30.12
78149;BME280;67396;42.664;23.382;2023-03-19T15:05:27;95098.22;;;13.64;30.54
78149;BME280;67396;42.664;23.382;2023-03-19T15:08:01;95108.91;;;13.62;30.87
78149;BME280;67396;42.664;23.382;2023-03-19T15:10:32;95104.94;;;13.67;30.29
78149;BME280;67396;42.664;23.382;2023-03-19T15:16:20;95105.72;;;13.67;30.43
78149;BME280;67396;42.664;23.382;2023-03-19T15:18:49;95113.97;;;13.71;30.20
78149;BME280;67396;42.664;23.382;2023-03-19T15:21:15;95104.09;;;13.73;30.40
78149;BME280;67396;42.664;23.382;2023-03-19T15:27:31;95113.22;;;13.63;30.70
78149;BME280;67396;42.664;23.382;2023-03-19T15:29:57;95116.75;;;13.67;30.24
78149;BME280;67396;42.664;23.382;2023-03-19T16:07:18;95116.34;;;13.65;31.23
78149;BME280;67396;42.664;23.382;2023-03-19T16:09:46;95114.00;;;13.67;30.94
78149;BME280;67396;42.664;23.382;2023-03-19T16:12:35;95115.97;;;13.70;30.87
78149;BME280;67396;42.664;23.382;2023-03-19T16:17:46;95121.50;;;13.63;31.24
78149;BME280;67396;42.664;23.382;2023-03-19T16:20:28;95121.50;;;13.63;31.04
78149;BME280;67396;42.664;23.382;2023-03-19T16:22:55;95127.38;;;13.65;31.37
78149;BME280;67396;42.664;23.382;2023-03-19T16:25:26;95124.63;;;13.69;31.13
78149;BME280;67396;42.664;23.382;2023-03-19T16:27:54;95131.38;;;13.61;31.00
78149;BME280;67396;42.664;23.382;2023-03-19T16:30:23;95125.84;;;13.57;30.88
78149;BME280;67396;42.664;23.382;2023-03-19T16:33:00;95121.91;;;13.58;31.27
78149;BME280;67396;42.664;23.382;2023-03-19T16:35:27;95117.59;;;13.50;31.45
78149;BME280;67396;42.664;23.382;2023-03-19T16:38:17;95120.38;;;13.43;31.91
78149;BME280;67396;42.664;23.382;2023-03-19T16:40:48;95119.56;;;13.46;32.22
78149;BME280;67396;42.664;23.382;2023-03-19T16:43:23;95123.53;;;13.38;33.37
78149;BME280;67396;42.664;23.382;2023-03-19T16:46:10;95126.72;;;13.33;33.24
78149;BME280;67396;42.664;23.382;2023-03-19T16:48:41;95126.34;;;13.27;33.05
78149;BME280;67396;42.664;23.382;2023-03-19T16:51:14;95118.47;;;13.26;33.17
78149;BME280;67396;42.664;23.382;2023-03-19T16:53:41;95124.38;;;13.21;33.06
78149;BME280;67396;42.664;23.382;2023-03-19T16:56:09;95124.00;;;13.18;33.19
78149;BME280;67396;42.664;23.382;2023-03-19T16:58:40;95129.53;;;13.15;33.28
78149;BME280;67396;42.664;23.382;2023-03-19T17:01:24;95131.06;;;13.12;33.39
78149;BME280;67396;42.664;23.382;2023-03-19T17:03:51;95125.97;;;13.07;33.40
78149;BME280;67396;42.664;23.382;2023-03-19T17:06:17;95138.16;;;13.06;33.95
78149;BME280;67396;42.664;23.382;2023-03-19T17:08:43;95137.00;;;13.00;34.73
78149;BME280;67396;42.664;23.382;2023-03-19T17:11:20;95140.94;;;12.96;35.84
78149;BME280;67396;42.664;23.382;2023-03-19T17:13:47;95136.59;;;12.84;36.41
78149;BME280;67396;42.664;23.382;2023-03-19T17:16:55;95144.47;;;12.68;36.20
78149;BME280;67396;42.664;23.382;2023-03-19T17:23:09;95143.28;;;12.58;36.67
78149;BME280;67396;42.664;23.382;2023-03-19T17:25:35;95148.41;;;12.53;37.03
78149;BME280;67396;42.664;23.382;2023-03-19T17:28:02;95144.50;;;12.47;36.78
78149;BME280;67396;42.664;23.382;2023-03-19T17:30:28;95149.22;;;12.46;36.74
78149;BME280;67396;42.664;23.382;2023-03-19T17:32:53;95150.38;;;12.41;36.54
78149;BME280;67396;42.664;23.382;2023-03-19T17:35:20;95147.25;;;12.39;36.95
78149;BME280;67396;42.664;23.382;2023-03-19T17:37:47;95145.66;;;12.38;36.97
78149;BME280;67396;42.664;23.382;2023-03-19T17:40:18;95148.41;;;12.35;36.99
78149;BME280;67396;42.664;23.382;2023-03-19T17:42:48;95149.97;;;12.32;37.43
78149;BME280;67396;42.664;23.382;2023-03-19T17:45:16;95149.97;;;12.29;37.49
78149;BME280;67396;42.664;23.382;2023-03-19T17:47:45;95150.38;;;12.27;37.68
78149;BME280;67396;42.664;23.382;2023-03-19T17:50:16;95159.00;;;12.22;37.77
78149;BME280;67396;42.664;23.382;2023-03-19T17:52:43;95168.44;;;12.21;37.93
78149;BME280;67396;42.664;23.382;2023-03-19T17:55:17;95171.19;;;12.21;37.84
78149;BME280;67396;42.664;23.382;2023-03-19T17:57:43;95174.31;;;12.09;38.50
78149;BME280;67396;42.664;23.382;2023-03-19T18:00:10;95176.25;;;12.05;38.37
78149;BME280;67396;42.664;23.382;2023-03-19T18:02:35;95172.72;;;12.01;38.53
78149;BME280;67396;42.664;23.382;2023-03-19T18:05:02;95177.41;;;11.97;39.02
78149;BME280;67396;42.664;23.382;2023-03-19T18:07:28;95180.16;;;11.93;39.13
78149;BME280;67396;42.664;23.382;2023-03-19T18:09:53;95180.88;;;11.80;39.61
78149;BME280;67396;42.664;23.382;2023-03-19T18:12:33;95173.34;;;11.73;39.33
78149;BME280;67396;42.664;23.382;2023-03-19T18:15:00;95177.63;;;11.63;39.92
78149;BME280;67396;42.664;23.382;2023-03-19T18:17:26;95178.81;;;11.62;39.70
78149;BME280;67396;42.664;23.382;2023-03-19T18:19:51;95174.47;;;11.61;39.65
78149;BME280;67396;42.664;23.382;2023-03-19T18:22:18;95184.31;;;11.62;39.39
78149;BME280;67396;42.664;23.382;2023-03-19T18:24:45;95183.13;;;11.60;39.23
78149;BME280;67396;42.664;23.382;2023-03-19T18:27:10;95183.88;;;11.53;47.01
78149;BME280;67396;42.664;23.382;2023-03-19T18:29:36;95187.03;;;11.52;42.25
78149;BME280;67396;42.664;23.382;2023-03-19T18:32:06;95190.59;;;11.59;40.46
78149;BME280;67396;42.664;23.382;2023-03-19T18:34:32;95195.69;;;11.57;39.85
78149;BME280;67396;42.664;23.382;2023-03-19T18:36:58;95196.84;;;11.56;39.52
78149;BME280;67396;42.664;23.382;2023-03-19T18:39:24;95197.22;;;11.51;40.01
78149;BME280;67396;42.664;23.382;2023-03-19T18:41:50;95205.78;;;11.39;40.14